Aloma, Florida
Current Conditions -  °F | °C
As of 5:53 PM on Friday 19 Dec 2014 (Local Time) from KORL Reporting Station
Clear Clear  
Wind Chill: 19°   Ceiling: Unl
Heat Index: 19°   Visibility: 10mi
Dew Point:   Wind: 3mph
Humidity: 34%   Direction: 30°NNE
Pressure: 30.08"   Gusts: NA
Location:  28.6093°N, 81.2979°W
Report Text: KORL 192253Z 03003KT 10SM CLR 19/03 A3008 RMK AO2 SLP191 T01940033
Loading
Personal Weather Stations






























Interactive Weather Map New forecast layout! Learn more

10-Day Weather Forecast

Advertisements
Track Severe Weather on mobile